createdAt,value
2016-09-12T00:00:37.190Z,1012.42
2016-09-12T00:01:37.183Z,1012.36
2016-09-12T00:02:37.160Z,1012.39
2016-09-12T00:03:37.151Z,1012.38
2016-09-12T00:04:37.131Z,1012.41
2016-09-12T00:05:37.119Z,1012.35
2016-09-12T00:06:37.106Z,1012.37
2016-09-12T00:07:37.086Z,1012.37
2016-09-12T00:08:37.068Z,1012.34
2016-09-12T00:09:37.062Z,1012.34
2016-09-12T00:10:37.042Z,1012.35
2016-09-12T00:11:37.028Z,1012.35
2016-09-12T00:12:37.095Z,1012.36
2016-09-12T00:13:36.996Z,1012.34
2016-09-12T00:14:36.998Z,1012.33
2016-09-12T00:15:36.973Z,1012.33
2016-09-12T00:16:36.955Z,1012.33
2016-09-12T00:17:36.935Z,1012.32
2016-09-12T00:18:36.922Z,1012.3
2016-09-12T00:19:36.927Z,1012.29
2016-09-12T00:20:36.892Z,1012.31
2016-09-12T00:21:36.878Z,1012.31
2016-09-12T00:22:36.868Z,1012.27
2016-09-12T00:23:36.856Z,1012.31
2016-09-12T00:24:36.837Z,1012.3
2016-09-12T00:25:36.820Z,1012.29
2016-09-12T00:26:36.813Z,1012.29
2016-09-12T00:27:36.789Z,1012.3
2016-09-12T00:28:36.774Z,1012.3
2016-09-12T00:29:36.761Z,1012.29
2016-09-12T00:30:36.746Z,1012.27
2016-09-12T00:31:36.734Z,1012.27
2016-09-12T00:32:36.718Z,1012.24
2016-09-12T00:33:36.711Z,1012.28
2016-09-12T00:34:36.686Z,1012.28
2016-09-12T00:35:36.671Z,1012.28
2016-09-12T00:36:36.668Z,1012.25
2016-09-12T00:37:36.642Z,1012.24
2016-09-12T00:38:36.626Z,1012.24
2016-09-12T00:39:36.614Z,1012.23
2016-09-12T00:40:36.615Z,1012.25
2016-09-12T00:41:36.580Z,1012.22
2016-09-12T00:42:36.568Z,1012.27
2016-09-12T00:43:36.562Z,1012.24
2016-09-12T00:44:36.537Z,1012.22
2016-09-12T00:45:36.523Z,1012.23
2016-09-12T00:46:36.511Z,1012.19
2016-09-12T00:47:36.499Z,1012.2
2016-09-12T00:48:36.476Z,1012.18
2016-09-12T00:49:36.462Z,1012.21
2016-09-12T00:50:36.446Z,1012.18
2016-09-12T00:51:36.435Z,1012.19
2016-09-12T00:52:36.422Z,1012.15
2016-09-12T00:53:36.404Z,1012.17
2016-09-12T00:54:36.393Z,1012.11
2016-09-12T00:55:36.375Z,1012.09
2016-09-12T00:56:36.356Z,1012.11
2016-09-12T00:57:36.343Z,1012.1
2016-09-12T00:58:36.337Z,1012.07
2016-09-12T00:59:36.314Z,1012.07
2016-09-12T01:00:36.305Z,1012.07
2016-09-12T01:01:36.291Z,1012.03
2016-09-12T01:02:36.271Z,1012.08
2016-09-12T01:03:36.253Z,1012.05
2016-09-12T01:04:36.243Z,1012.01
2016-09-12T01:05:36.227Z,1012.06
2016-09-12T01:06:36.210Z,1012.01
2016-09-12T01:07:36.196Z,1012.01
2016-09-12T01:08:36.183Z,1011.96
2016-09-12T01:09:36.167Z,1011.98
2016-09-12T01:10:36.149Z,1011.98
2016-09-12T01:11:36.148Z,1011.95
2016-09-12T01:12:36.125Z,1011.94
2016-09-12T01:13:36.112Z,1011.96
2016-09-12T01:14:36.093Z,1011.97
2016-09-12T01:15:36.074Z,1011.95
2016-09-12T01:16:36.060Z,1011.9
2016-09-12T01:17:36.046Z,1011.92
2016-09-12T01:18:36.029Z,1011.88
2016-09-12T01:19:36.017Z,1011.88
2016-09-12T01:20:36.006Z,1011.88
2016-09-12T01:21:35.986Z,1011.85
2016-09-12T01:22:35.970Z,1011.84
2016-09-12T01:23:35.955Z,1011.88
2016-09-12T01:24:35.952Z,1011.87
2016-09-12T01:25:35.926Z,1011.91
2016-09-12T01:26:35.912Z,1011.91
2016-09-12T01:27:35.908Z,1011.86
2016-09-12T01:28:35.888Z,1011.91
2016-09-12T01:29:35.865Z,1011.86
2016-09-12T01:30:35.850Z,1011.87
2016-09-12T01:31:35.840Z,1011.87
2016-09-12T01:32:35.831Z,1011.83
2016-09-12T01:33:35.811Z,1011.81
2016-09-12T01:34:35.794Z,1011.81
2016-09-12T01:35:35.778Z,1011.77
2016-09-12T01:36:35.766Z,1011.79
2016-09-12T01:37:35.747Z,1011.73
2016-09-12T01:38:35.737Z,1011.74
2016-09-12T01:39:35.716Z,1011.73
2016-09-12T01:40:35.716Z,1011.71
2016-09-12T01:41:35.746Z,1011.69
2016-09-12T01:42:35.677Z,1011.7
2016-09-12T01:43:35.656Z,1011.7
2016-09-12T01:44:35.646Z,1011.68
2016-09-12T01:45:35.625Z,1011.68
2016-09-12T01:46:35.610Z,1011.66
2016-09-12T01:47:35.600Z,1011.65
2016-09-12T01:48:35.585Z,1011.64
2016-09-12T01:49:35.580Z,1011.65
2016-09-12T01:50:35.574Z,1011.63
2016-09-12T01:51:35.540Z,1011.62
2016-09-12T01:52:35.969Z,1011.62
2016-09-12T01:53:35.510Z,1011.63
2016-09-12T01:54:35.522Z,1011.63
2016-09-12T01:55:35.489Z,1011.57
2016-09-12T01:56:35.477Z,1011.61
2016-09-12T01:57:35.502Z,1011.55
2016-09-12T01:58:35.437Z,1011.54
2016-09-12T01:59:35.419Z,1011.55
2016-09-12T02:00:35.419Z,1011.53
2016-09-12T02:01:35.389Z,1011.53
2016-09-12T02:02:35.377Z,1011.54
2016-09-12T02:03:35.359Z,1011.51
2016-09-12T02:04:35.346Z,1011.49
2016-09-12T02:05:35.329Z,1011.5
2016-09-12T02:06:35.317Z,1011.52
2016-09-12T02:07:35.301Z,1011.57
2016-09-12T02:08:35.293Z,1011.55
2016-09-12T02:09:35.271Z,1011.58
2016-09-12T02:10:35.272Z,1011.55
2016-09-12T02:11:35.248Z,1011.55
2016-09-12T02:12:35.226Z,1011.57
2016-09-12T02:13:35.221Z,1011.57
2016-09-12T02:14:35.201Z,1011.63
2016-09-12T02:15:35.196Z,1011.58
2016-09-12T02:16:35.195Z,1011.58
2016-09-12T02:17:35.152Z,1011.58
2016-09-12T02:18:35.143Z,1011.61
2016-09-12T02:19:35.126Z,1011.61
2016-09-12T02:20:35.110Z,1011.6
2016-09-12T02:21:35.101Z,1011.59
2016-09-12T02:22:35.246Z,1011.64
2016-09-12T02:23:35.062Z,1011.64
2016-09-12T02:24:35.048Z,1011.64
2016-09-12T02:25:35.035Z,1011.59
2016-09-12T02:26:35.034Z,1011.58
2016-09-12T02:27:35.001Z,1011.59
2016-09-12T02:28:34.987Z,1011.6
2016-09-12T02:29:34.973Z,1011.58
2016-09-12T02:30:34.964Z,1011.59
2016-09-12T02:31:34.948Z,1011.59
2016-09-12T02:32:34.930Z,1011.6
2016-09-12T02:33:34.914Z,1011.61
2016-09-12T02:34:34.941Z,1011.6
2016-09-12T02:35:34.887Z,1011.57
2016-09-12T02:36:34.870Z,1011.63
2016-09-12T02:37:34.851Z,1011.63
2016-09-12T02:38:34.890Z,1011.58
2016-09-12T02:39:34.824Z,1011.62
2016-09-12T02:40:34.808Z,1011.65
2016-09-12T02:41:34.799Z,1011.61
2016-09-12T02:42:34.778Z,1011.57
2016-09-12T02:43:34.765Z,1011.59
2016-09-12T02:44:34.750Z,1011.58
2016-09-12T02:45:34.792Z,1011.58
2016-09-12T02:46:34.718Z,1011.53
2016-09-12T02:47:34.720Z,1011.57
2016-09-12T02:48:34.690Z,1011.55
2016-09-12T02:49:34.673Z,1011.55
2016-09-12T02:50:34.668Z,1011.58
2016-09-12T02:51:34.665Z,1011.58
2016-09-12T02:52:34.635Z,1011.54
2016-09-12T02:53:34.620Z,1011.58
2016-09-12T02:54:34.606Z,1011.59
2016-09-12T02:55:34.588Z,1011.54
2016-09-12T02:56:34.570Z,1011.54
2016-09-12T02:57:34.553Z,1011.54
2016-09-12T02:58:34.540Z,1011.53
2016-09-12T02:59:34.529Z,1011.54
2016-09-12T03:00:34.512Z,1011.57
2016-09-12T03:01:34.513Z,1011.48
2016-09-12T03:02:34.480Z,1011.55
2016-09-12T03:03:34.470Z,1011.56
2016-09-12T03:04:34.459Z,1011.53
2016-09-12T03:05:34.447Z,1011.56
2016-09-12T03:06:34.422Z,1011.6
2016-09-12T03:07:34.407Z,1011.51
2016-09-12T03:08:34.395Z,1011.52
2016-09-12T03:09:34.378Z,1011.54
2016-09-12T03:10:34.366Z,1011.57
2016-09-12T03:11:34.346Z,1011.52
2016-09-12T03:12:34.330Z,1011.52
2016-09-12T03:13:34.318Z,1011.56
2016-09-12T03:14:34.307Z,1011.51
2016-09-12T03:15:34.287Z,1011.52
2016-09-12T03:16:34.275Z,1011.5
2016-09-12T03:17:34.257Z,1011.51
2016-09-12T03:18:34.247Z,1011.56
2016-09-12T03:19:34.230Z,1011.54
2016-09-12T03:20:34.220Z,1011.53
2016-09-12T03:21:34.200Z,1011.56
2016-09-12T03:22:34.189Z,1011.53
2016-09-12T03:23:34.166Z,1011.51
2016-09-12T03:24:34.153Z,1011.51
2016-09-12T03:25:34.192Z,1011.53
2016-09-12T03:26:34.125Z,1011.51
2016-09-12T03:27:34.112Z,1011.52
2016-09-12T03:28:34.093Z,1011.52
2016-09-12T03:29:34.078Z,1011.51
2016-09-12T03:30:34.063Z,1011.47
2016-09-12T03:31:34.051Z,1011.48
2016-09-12T03:32:34.040Z,1011.5
2016-09-12T03:33:34.020Z,1011.54
2016-09-12T03:34:34.006Z,1011.49
2016-09-12T03:35:33.996Z,1011.5
2016-09-12T03:36:33.975Z,1011.52
2016-09-12T03:37:34.072Z,1011.53
2016-09-12T03:38:33.948Z,1011.5
2016-09-12T03:39:33.931Z,1011.52
2016-09-12T03:40:33.918Z,1011.56
2016-09-12T03:41:33.921Z,1011.52
2016-09-12T03:42:33.949Z,1011.51
2016-09-12T03:43:33.875Z,1011.52
2016-09-12T03:44:33.863Z,1011.49
2016-09-12T03:45:33.840Z,1011.5
2016-09-12T03:46:33.827Z,1011.49
2016-09-12T03:47:33.810Z,1011.5
2016-09-12T03:48:33.798Z,1011.48
2016-09-12T03:49:33.786Z,1011.47
2016-09-12T03:50:33.913Z,1011.47
2016-09-12T03:51:33.751Z,1011.48
2016-09-12T03:52:33.740Z,1011.51
2016-09-12T03:53:33.725Z,1011.51
2016-09-12T03:54:33.707Z,1011.47
2016-09-12T03:55:33.696Z,1011.45
2016-09-12T03:56:33.686Z,1011.46
2016-09-12T03:57:33.672Z,1011.46
2016-09-12T03:58:33.647Z,1011.46
2016-09-12T03:59:33.631Z,1011.47
2016-09-12T04:00:33.625Z,1011.48
2016-09-12T04:01:33.618Z,1011.48
2016-09-12T04:02:33.588Z,1011.44
2016-09-12T04:03:33.578Z,1011.43
2016-09-12T04:04:33.559Z,1011.42
2016-09-12T04:05:33.548Z,1011.41
2016-09-12T04:06:33.530Z,1011.41
2016-09-12T04:07:33.513Z,1011.44
2016-09-12T04:08:33.502Z,1011.43
2016-09-12T04:09:33.488Z,1011.42
2016-09-12T04:10:33.471Z,1011.45
2016-09-12T04:11:33.454Z,1011.44
2016-09-12T04:12:33.459Z,1011.4
2016-09-12T04:13:33.425Z,1011.43
2016-09-12T04:14:33.411Z,1011.45
2016-09-12T04:15:33.399Z,1011.42
2016-09-12T04:16:33.381Z,1011.46
2016-09-12T04:17:33.369Z,1011.45
2016-09-12T04:18:33.350Z,1011.44
2016-09-12T04:19:33.335Z,1011.48
2016-09-12T04:20:33.356Z,1011.47
2016-09-12T04:21:33.308Z,1011.45
2016-09-12T04:22:33.293Z,1011.45
2016-09-12T04:23:33.301Z,1011.45
2016-09-12T04:24:33.262Z,1011.45
2016-09-12T04:25:33.252Z,1011.5
2016-09-12T04:26:33.236Z,1011.48
2016-09-12T04:27:33.221Z,1011.49
2016-09-12T04:28:33.204Z,1011.53
2016-09-12T04:29:33.200Z,1011.55
2016-09-12T04:30:33.172Z,1011.53
2016-09-12T04:31:33.160Z,1011.54
2016-09-12T04:32:33.150Z,1011.54
2016-09-12T04:33:33.177Z,1011.56
2016-09-12T04:34:33.116Z,1011.57
2016-09-12T04:35:33.097Z,1011.53
2016-09-12T04:36:33.087Z,1011.56
2016-09-12T04:37:33.079Z,1011.58
2016-09-12T04:38:33.052Z,1011.56
2016-09-12T04:39:33.046Z,1011.57
2016-09-12T04:40:33.031Z,1011.59
2016-09-12T04:41:33.005Z,1011.57
2016-09-12T04:42:32.991Z,1011.58
2016-09-12T04:43:32.981Z,1011.52
2016-09-12T04:44:32.968Z,1011.56
2016-09-12T04:45:32.952Z,1011.54
2016-09-12T04:46:32.946Z,1011.55
2016-09-12T04:47:32.934Z,1011.57
2016-09-12T04:48:32.903Z,1011.58
2016-09-12T04:49:32.891Z,1011.57
2016-09-12T04:50:32.874Z,1011.6
2016-09-12T04:51:32.862Z,1011.58
2016-09-12T04:52:32.844Z,1011.61
2016-09-12T04:53:32.831Z,1011.63
2016-09-12T04:54:32.812Z,1011.59
2016-09-12T04:55:32.811Z,1011.64
2016-09-12T04:56:32.783Z,1011.62
2016-09-12T04:57:32.765Z,1011.61
2016-09-12T04:58:32.756Z,1011.64
2016-09-12T04:59:32.740Z,1011.64
2016-09-12T05:00:32.724Z,1011.6
2016-09-12T05:01:32.713Z,1011.59
2016-09-12T05:02:32.692Z,1011.67
2016-09-12T05:03:32.679Z,1011.68
2016-09-12T05:04:32.664Z,1011.58
2016-09-12T05:05:32.652Z,1011.59
2016-09-12T05:06:32.637Z,1011.56
2016-09-12T05:07:32.620Z,1011.55
2016-09-12T05:08:32.614Z,1011.54
2016-09-12T05:09:32.599Z,1011.51
2016-09-12T05:10:32.576Z,1011.55
2016-09-12T05:11:32.606Z,1011.54
2016-09-12T05:12:32.552Z,1011.54
2016-09-12T05:13:32.531Z,1011.55
2016-09-12T05:14:32.536Z,1011.5
2016-09-12T05:15:32.499Z,1011.57
2016-09-12T05:16:32.484Z,1011.54
2016-09-12T05:17:32.489Z,1011.54
2016-09-12T05:18:32.467Z,1011.55
2016-09-12T05:19:32.441Z,1011.51
2016-09-12T05:20:32.432Z,1011.49
2016-09-12T05:21:32.412Z,1011.52
2016-09-12T05:22:32.420Z,1011.55
2016-09-12T05:23:32.384Z,1011.52
2016-09-12T05:24:32.367Z,1011.6
2016-09-12T05:25:32.355Z,1011.59
2016-09-12T05:26:32.336Z,1011.59
2016-09-12T05:27:32.325Z,1011.59
2016-09-12T05:28:32.316Z,1011.58
2016-09-12T05:29:32.293Z,1011.58
2016-09-12T05:30:32.283Z,1011.57
2016-09-12T05:31:32.265Z,1011.58
2016-09-12T05:32:32.249Z,1011.61
2016-09-12T05:33:32.415Z,1011.56
2016-09-12T05:34:32.215Z,1011.56
2016-09-12T05:35:32.235Z,1011.57
2016-09-12T05:36:32.191Z,1011.58
2016-09-12T05:37:32.170Z,1011.61
2016-09-12T05:38:32.163Z,1011.64
2016-09-12T05:39:32.146Z,1011.66
2016-09-12T05:40:32.125Z,1011.64
2016-09-12T05:41:32.110Z,1011.7
2016-09-12T05:42:32.124Z,1011.71
2016-09-12T05:43:32.090Z,1011.74
2016-09-12T05:44:32.064Z,1011.73
2016-09-12T05:45:32.195Z,1011.79
2016-09-12T05:46:32.043Z,1011.8
2016-09-12T05:47:32.027Z,1011.75
2016-09-12T05:48:32.006Z,1011.78
2016-09-12T05:49:31.994Z,1011.78
2016-09-12T05:50:31.988Z,1011.79
2016-09-12T05:51:31.968Z,1011.78
2016-09-12T05:52:31.947Z,1011.79
2016-09-12T05:53:31.928Z,1011.76
2016-09-12T05:54:31.960Z,1011.77
2016-09-12T05:55:31.906Z,1011.76
2016-09-12T05:56:31.902Z,1011.73
2016-09-12T05:57:31.876Z,1011.74
2016-09-12T05:58:31.940Z,1011.73
2016-09-12T05:59:31.841Z,1011.71
2016-09-12T06:00:31.829Z,1011.76
2016-09-12T06:01:31.827Z,1011.77
2016-09-12T06:02:31.813Z,1011.71
2016-09-12T06:03:31.780Z,1011.77
2016-09-12T06:04:31.765Z,1011.72
2016-09-12T06:05:31.947Z,1011.76
2016-09-12T06:06:31.735Z,1011.74
2016-09-12T06:07:31.732Z,1011.72
2016-09-12T06:08:31.708Z,1011.73
2016-09-12T06:09:34.389Z,1011.72
2016-09-12T06:10:31.678Z,1011.71
2016-09-12T06:11:31.663Z,1011.78
2016-09-12T06:12:31.653Z,1011.72
2016-09-12T06:13:31.992Z,1011.73
2016-09-12T06:14:31.664Z,1011.71
2016-09-12T06:15:31.899Z,1011.71
2016-09-12T06:16:31.587Z,1011.7
2016-09-12T06:17:31.636Z,1011.72
2016-09-12T06:18:31.557Z,1011.75
2016-09-12T06:19:31.542Z,1011.75
2016-09-12T06:20:39.938Z,1011.79
2016-09-12T06:21:31.895Z,1011.77
2016-09-12T06:23:07.459Z,1011.76
2016-09-12T06:24:28.147Z,1011.77
2016-09-12T06:24:53.781Z,1011.79
2016-09-12T06:26:53.746Z,1011.82
2016-09-12T06:27:53.737Z,1011.82
2016-09-12T06:28:53.736Z,1011.78
2016-09-12T06:29:53.716Z,1011.81
2016-09-12T06:30:53.688Z,1011.81
2016-09-12T06:31:53.670Z,1011.81
2016-09-12T06:32:53.657Z,1011.79
2016-09-12T06:33:53.645Z,1011.82
2016-09-12T06:34:53.630Z,1011.89
2016-09-12T06:35:53.639Z,1011.86
2016-09-12T06:36:53.600Z,1011.82
2016-09-12T06:37:53.583Z,1011.81
2016-09-12T06:38:53.567Z,1011.79
2016-09-12T06:39:53.554Z,1011.79
2016-09-12T06:40:53.542Z,1011.84
2016-09-12T06:42:06.424Z,1011.85
2016-09-12T06:58:54.783Z,1011.91
2016-09-12T07:11:49.596Z,1011.93
2016-09-12T13:02:31.225Z,1010.69
2016-09-12T13:03:31.212Z,1010.72
2016-09-12T13:04:31.196Z,1010.7
2016-09-12T13:05:31.182Z,1010.66
2016-09-12T13:06:31.166Z,1010.7
2016-09-12T13:07:31.153Z,1010.6
2016-09-12T13:08:31.138Z,1010.63
2016-09-12T13:09:31.128Z,1010.66
2016-09-12T13:10:31.121Z,1010.65
2016-09-12T13:11:31.093Z,1010.6
2016-09-12T13:12:31.089Z,1010.6
2016-09-12T13:13:31.067Z,1010.63
2016-09-12T13:14:31.050Z,1010.64
2016-09-12T13:15:31.037Z,1010.65
2016-09-12T13:16:31.023Z,1010.58
2016-09-12T13:17:31.007Z,1010.56
2016-09-12T13:18:30.996Z,1010.58
2016-09-12T13:19:30.979Z,1010.57
2016-09-12T13:20:30.967Z,1010.57
2016-09-12T13:21:30.951Z,1010.58
2016-09-12T13:22:30.937Z,1010.56
2016-09-12T13:23:30.923Z,1010.55
2016-09-12T13:24:30.906Z,1010.58
2016-09-12T13:25:30.895Z,1010.52
2016-09-12T13:26:30.882Z,1010.53
2016-09-12T13:27:30.866Z,1010.54
2016-09-12T13:28:30.851Z,1010.5
2016-09-12T13:29:30.838Z,1010.47
2016-09-12T13:30:30.823Z,1010.51
2016-09-12T13:31:30.810Z,1010.49
2016-09-12T13:32:30.795Z,1010.45
2016-09-12T13:33:30.781Z,1010.5
2016-09-12T13:34:30.764Z,1010.49
2016-09-12T13:35:30.759Z,1010.49
2016-09-12T13:36:30.735Z,1010.49
2016-09-12T13:37:30.728Z,1010.52
2016-09-12T13:38:30.712Z,1010.53
2016-09-12T13:39:30.699Z,1010.48
2016-09-12T13:40:30.682Z,1010.47
2016-09-12T13:41:30.669Z,1010.48
2016-09-12T13:42:30.654Z,1010.45
2016-09-12T13:43:30.639Z,1010.42
2016-09-12T13:44:30.624Z,1010.43
2016-09-12T13:45:30.614Z,1010.41
2016-09-12T13:46:30.598Z,1010.42
2016-09-12T13:47:30.589Z,1010.43
2016-09-12T13:48:30.585Z,1010.41
2016-09-12T13:49:30.558Z,1010.44
2016-09-12T13:50:30.540Z,1010.43
2016-09-12T13:51:30.529Z,1010.42
2016-09-12T13:52:30.514Z,1010.38
2016-09-12T13:53:30.501Z,1010.4
2016-09-12T13:54:30.486Z,1010.41
2016-09-12T13:55:30.471Z,1010.43
2016-09-12T13:56:30.459Z,1010.44
2016-09-12T13:57:30.444Z,1010.39
2016-09-12T13:58:30.431Z,1010.39
2016-09-12T13:59:30.420Z,1010.38
2016-09-12T14:00:30.407Z,1010.4
2016-09-12T14:01:30.389Z,1010.38
2016-09-12T14:02:30.378Z,1010.37
2016-09-12T14:03:30.364Z,1010.39
2016-09-12T14:04:30.351Z,1010.4
2016-09-12T14:05:30.334Z,1010.37
2016-09-12T14:06:30.321Z,1010.37
2016-09-12T14:07:30.308Z,1010.3
2016-09-12T14:08:30.293Z,1010.31
2016-09-12T14:09:30.281Z,1010.31
2016-09-12T14:10:30.267Z,1010.34
2016-09-12T14:11:30.258Z,1010.3
2016-09-12T14:12:30.236Z,1010.32
2016-09-12T14:13:30.228Z,1010.34
2016-09-12T14:14:30.212Z,1010.27
2016-09-12T14:15:30.197Z,1010.3
2016-09-12T14:16:30.185Z,1010.27
2016-09-12T14:17:30.172Z,1010.28
2016-09-12T14:18:30.160Z,1010.32
2016-09-12T14:19:30.142Z,1010.29
2016-09-12T14:20:30.131Z,1010.27
2016-09-12T14:21:30.117Z,1010.27
2016-09-12T14:22:30.104Z,1010.28
2016-09-12T14:23:30.091Z,1010.25
2016-09-12T14:24:30.078Z,1010.27
2016-09-12T14:25:30.065Z,1010.28
2016-09-12T14:26:30.053Z,1010.23
2016-09-12T14:27:30.036Z,1010.21
2016-09-12T14:28:30.023Z,1010.24
2016-09-12T14:29:30.012Z,1010.27
2016-09-12T14:30:29.997Z,1010.22
2016-09-12T14:31:29.984Z,1010.23
2016-09-12T14:32:29.970Z,1010.22
2016-09-12T14:33:29.957Z,1010.19
2016-09-12T14:34:29.941Z,1010.19
2016-09-12T14:35:29.927Z,1010.23
2016-09-12T14:36:29.928Z,1010.17
2016-09-12T14:37:29.904Z,1010.2
2016-09-12T14:38:29.891Z,1010.17
2016-09-12T14:39:29.878Z,1010.18
2016-09-12T14:40:29.867Z,1010.18
2016-09-12T14:41:29.847Z,1010.14
2016-09-12T14:42:29.839Z,1010.14
2016-09-12T14:43:29.823Z,1010.11
2016-09-12T14:44:29.812Z,1010.14
2016-09-12T14:45:29.793Z,1010.1
2016-09-12T14:46:29.780Z,1010.11
2016-09-12T14:47:29.773Z,1010.11
2016-09-12T14:48:29.758Z,1010.12
2016-09-12T14:49:29.744Z,1010.11
2016-09-12T14:50:29.728Z,1010.12
2016-09-12T14:51:29.721Z,1010.1
2016-09-12T14:52:29.702Z,1010.09
2016-09-12T14:53:29.691Z,1010.12
2016-09-12T14:54:29.676Z,1010.12
2016-09-12T14:55:29.663Z,1010.09
2016-09-12T14:56:29.654Z,1010.12
2016-09-12T14:57:29.633Z,1010.12
2016-09-12T14:58:29.619Z,1010.09
2016-09-12T14:59:29.606Z,1010.11
2016-09-12T15:00:29.608Z,1010.06
2016-09-12T15:01:29.581Z,1010.09
2016-09-12T15:02:29.568Z,1010.08
2016-09-12T15:03:29.555Z,1010.05
2016-09-12T15:04:29.542Z,1010.03
2016-09-12T15:05:29.526Z,1010.04
2016-09-12T15:06:29.518Z,1010.03
2016-09-12T15:07:29.510Z,1010.04
2016-09-12T15:08:29.485Z,1010.03
2016-09-12T15:09:29.469Z,1010.04
2016-09-12T15:10:29.464Z,1010.05
2016-09-12T15:11:29.443Z,1010.05
2016-09-12T15:12:29.437Z,1010.01
2016-09-12T15:13:29.418Z,1010.01
2016-09-12T15:14:29.413Z,1010.01
2016-09-12T15:15:29.391Z,1010.03
2016-09-12T15:16:29.386Z,1010
2016-09-12T15:17:29.368Z,1010
2016-09-12T15:18:29.353Z,1009.99
2016-09-12T15:19:29.337Z,1010.05
2016-09-12T15:20:29.333Z,1010.03
2016-09-12T15:21:29.309Z,1010.02
2016-09-12T15:22:29.301Z,1010.04
2016-09-12T15:23:29.293Z,1009.96
2016-09-12T15:24:29.269Z,1009.98
2016-09-12T15:25:29.256Z,1009.95
2016-09-12T15:26:29.254Z,1010
2016-09-12T15:27:29.237Z,1009.98
2016-09-12T15:28:29.227Z,1009.97
2016-09-12T15:29:29.198Z,1009.95
2016-09-12T15:30:29.197Z,1009.93
2016-09-12T15:31:29.174Z,1009.94
2016-09-12T15:32:29.167Z,1009.91
2016-09-12T15:33:29.149Z,1009.89
2016-09-12T15:34:29.148Z,1009.9
2016-09-12T15:35:29.132Z,1009.92
2016-09-12T15:36:29.107Z,1009.88
2016-09-12T15:37:29.092Z,1009.88
2016-09-12T15:38:29.085Z,1009.87
2016-09-12T15:39:29.063Z,1009.87
2016-09-12T15:40:29.055Z,1009.89
2016-09-12T15:41:29.035Z,1009.9
2016-09-12T15:42:29.024Z,1009.85
2016-09-12T15:43:29.011Z,1009.91
2016-09-12T15:44:29.004Z,1009.91
2016-09-12T15:45:28.983Z,1009.86
2016-09-12T15:46:28.987Z,1009.86
2016-09-12T15:47:28.956Z,1009.84
2016-09-12T15:48:28.952Z,1009.87
2016-09-12T15:49:28.929Z,1009.85
2016-09-12T15:50:28.920Z,1009.82
2016-09-12T15:51:28.906Z,1009.77
2016-09-12T15:52:28.890Z,1009.78
2016-09-12T15:53:28.877Z,1009.78
2016-09-12T15:54:28.863Z,1009.73
2016-09-12T15:55:28.847Z,1009.76
2016-09-12T15:56:28.835Z,1009.79
2016-09-12T15:57:28.822Z,1009.73
2016-09-12T15:58:28.807Z,1009.72
2016-09-12T15:59:28.799Z,1009.72
2016-09-12T16:00:28.787Z,1009.71
2016-09-12T16:01:28.765Z,1009.72
2016-09-12T16:02:28.752Z,1009.74
2016-09-12T16:03:28.737Z,1009.67
2016-09-12T16:04:28.728Z,1009.7
2016-09-12T16:05:28.714Z,1009.67
2016-09-12T16:06:28.700Z,1009.66
2016-09-12T16:07:28.685Z,1009.69
2016-09-12T16:08:28.670Z,1009.68
2016-09-12T16:09:28.655Z,1009.66
2016-09-12T16:10:28.642Z,1009.63
2016-09-12T16:11:28.630Z,1009.71
2016-09-12T16:12:28.617Z,1009.73
2016-09-12T16:13:28.601Z,1009.7
2016-09-12T16:14:28.590Z,1009.73
2016-09-12T16:15:28.575Z,1009.73
2016-09-12T16:16:28.562Z,1009.81
2016-09-12T16:17:28.550Z,1009.72
2016-09-12T16:18:28.534Z,1009.77
2016-09-12T16:19:28.531Z,1009.74
2016-09-12T16:20:28.505Z,1009.75
2016-09-12T16:21:28.495Z,1009.78
2016-09-12T16:22:28.477Z,1009.77
2016-09-12T16:23:28.464Z,1009.75
2016-09-12T16:24:28.453Z,1009.73
2016-09-12T16:25:28.443Z,1009.74
2016-09-12T16:26:28.423Z,1009.74
2016-09-12T16:27:28.411Z,1009.74
2016-09-12T16:28:28.392Z,1009.73
2016-09-12T16:29:28.384Z,1009.7
2016-09-12T16:30:28.368Z,1009.78
2016-09-12T16:31:28.354Z,1009.72
2016-09-12T16:32:28.342Z,1009.72
2016-09-12T16:33:28.332Z,1009.71
2016-09-12T16:34:28.313Z,1009.74
2016-09-12T16:35:28.302Z,1009.74
2016-09-12T16:36:28.287Z,1009.78
2016-09-12T16:37:28.275Z,1009.73
2016-09-12T16:38:28.261Z,1009.7
2016-09-12T16:39:28.246Z,1009.71
2016-09-12T16:40:28.231Z,1009.7
2016-09-12T16:41:28.220Z,1009.69
2016-09-12T16:42:28.204Z,1009.7
2016-09-12T16:43:28.195Z,1009.71
2016-09-12T16:44:28.178Z,1009.71
2016-09-12T16:45:28.166Z,1009.67
2016-09-12T16:46:28.147Z,1009.67
2016-09-12T16:47:28.136Z,1009.71
2016-09-12T16:48:28.123Z,1009.71
2016-09-12T16:49:28.107Z,1009.68
2016-09-12T16:50:28.094Z,1009.7
2016-09-12T16:51:28.086Z,1009.7
2016-09-12T16:52:28.074Z,1009.7
2016-09-12T16:53:28.052Z,1009.67
2016-09-12T16:54:28.038Z,1009.69
2016-09-12T16:55:28.026Z,1009.69
2016-09-12T16:56:28.018Z,1009.69
2016-09-12T16:57:27.997Z,1009.7
2016-09-12T16:58:27.993Z,1009.69
2016-09-12T16:59:27.969Z,1009.71
2016-09-12T17:00:27.954Z,1009.71
2016-09-12T17:01:27.942Z,1009.68
2016-09-12T17:02:27.933Z,1009.68
2016-09-12T17:03:27.914Z,1009.69
2016-09-12T17:04:27.900Z,1009.68
2016-09-12T17:05:27.891Z,1009.67
2016-09-12T17:06:27.870Z,1009.69
2016-09-12T17:07:27.860Z,1009.66
2016-09-12T17:08:27.845Z,1009.65
2016-09-12T17:09:27.831Z,1009.64
2016-09-12T17:10:27.818Z,1009.65
2016-09-12T17:11:27.808Z,1009.67
2016-09-12T17:12:27.790Z,1009.65
2016-09-12T17:13:27.774Z,1009.65
2016-09-12T17:14:27.760Z,1009.66
2016-09-12T17:15:27.750Z,1009.68
2016-09-12T17:16:27.733Z,1009.67
2016-09-12T17:17:27.721Z,1009.65
2016-09-12T17:18:27.704Z,1009.64
2016-09-12T17:19:27.692Z,1009.59
2016-09-12T17:20:27.678Z,1009.63
2016-09-12T17:21:27.665Z,1009.64
2016-09-12T17:22:27.650Z,1009.61
2016-09-12T17:23:27.641Z,1009.63
2016-09-12T17:24:27.626Z,1009.58
2016-09-12T17:25:27.611Z,1009.57
2016-09-12T17:26:27.596Z,1009.58
2016-09-12T17:27:27.582Z,1009.57
2016-09-12T17:28:27.569Z,1009.59
2016-09-12T17:29:27.554Z,1009.6
2016-09-12T17:30:27.541Z,1009.61
2016-09-12T17:31:27.529Z,1009.62
2016-09-12T17:32:27.514Z,1009.59
2016-09-12T17:33:27.502Z,1009.6
2016-09-12T17:34:27.486Z,1009.58
2016-09-12T17:35:27.471Z,1009.6
2016-09-12T17:36:27.458Z,1009.59
2016-09-12T17:37:27.444Z,1009.59
2016-09-12T17:38:27.430Z,1009.58
2016-09-12T17:39:27.416Z,1009.57
2016-09-12T17:40:27.403Z,1009.6
2016-09-12T17:41:27.392Z,1009.6
2016-09-12T17:42:27.375Z,1009.58
2016-09-12T17:43:27.364Z,1009.56
2016-09-12T17:44:27.343Z,1009.57
2016-09-12T17:45:27.332Z,1009.62
2016-09-12T17:46:27.319Z,1009.58
2016-09-12T17:47:27.307Z,1009.56
2016-09-12T17:48:27.291Z,1009.6
2016-09-12T17:49:27.279Z,1009.59
2016-09-12T17:50:27.265Z,1009.64
2016-09-12T17:51:27.265Z,1009.61
2016-09-12T17:52:27.284Z,1009.61
2016-09-12T17:53:27.221Z,1009.57
2016-09-12T17:54:27.208Z,1009.57
2016-09-12T17:55:27.195Z,1009.58
2016-09-12T17:56:27.181Z,1009.59
2016-09-12T17:57:27.167Z,1009.6
2016-09-12T17:58:27.161Z,1009.63
2016-09-12T17:59:27.142Z,1009.59
2016-09-12T18:00:27.128Z,1009.6
2016-09-12T18:01:27.113Z,1009.6
2016-09-12T18:02:27.098Z,1009.63
2016-09-12T18:03:27.086Z,1009.59
2016-09-12T18:04:27.075Z,1009.62
2016-09-12T18:05:27.062Z,1009.63
2016-09-12T18:06:27.043Z,1009.64
2016-09-12T18:07:27.028Z,1009.65
2016-09-12T18:08:27.015Z,1009.66
2016-09-12T18:09:27.001Z,1009.65
2016-09-12T18:10:26.989Z,1009.63
2016-09-12T18:11:26.972Z,1009.67
2016-09-12T18:12:26.960Z,1009.68
2016-09-12T18:13:26.946Z,1009.68
2016-09-12T18:14:26.934Z,1009.7
2016-09-12T18:15:26.916Z,1009.71
2016-09-12T18:16:26.914Z,1009.72
2016-09-12T18:17:26.890Z,1009.73
2016-09-12T18:18:26.879Z,1009.73
2016-09-12T18:19:26.861Z,1009.72
2016-09-12T18:20:26.856Z,1009.72
2016-09-12T18:21:26.835Z,1009.69
2016-09-12T18:22:26.820Z,1009.69
2016-09-12T18:23:26.807Z,1009.69
2016-09-12T18:24:26.792Z,1009.7
2016-09-12T18:25:26.779Z,1009.73
2016-09-12T18:26:26.768Z,1009.71
2016-09-12T18:27:26.752Z,1009.71